Time;durP1;ratioP1;P1;durP2;ratioP2;P2;SDS_P1;SDS_P2;PMS_P1;PMS_P2;Temp;Humidity;BMP_temperature;BMP_pressure;BME280_temperature;BME280_humidity;BME280_pressure;Samples;Min_cycle;Max_cycle;Signal;HPM_P1;HPM_P2
2022/10/20 00:01:49;;;;;;;19.83;10.53;;;;;;;;;;4974865;28;20026;-75
2022/10/20 00:04:15;;;;;;;19.43;10.90;;;;;;;;;;4974658;28;20049;-75
2022/10/20 00:06:40;;;;;;;22.23;10.13;;;;;;;;;;4974334;28;20502;-76
2022/10/20 00:09:06;;;;;;;17.87;11.67;;;;;;;;;;4992231;28;20388;-75
2022/10/20 00:11:32;;;;;;;21.53;12.10;;;;;;;;;;4992222;28;20026;-75
2022/10/20 00:13:58;;;;;;;27.20;12.00;;;;;;;;;;4974613;28;20022;-75
2022/10/20 00:16:28;;;;;;;21.33;11.67;;;;;;;;;;4974608;28;20459;-75
2022/10/20 00:18:54;;;;;;;22.93;12.07;;;;;;;;;;4992067;28;20054;-74
2022/10/20 00:21:23;;;;;;;24.83;12.30;;;;;;;;;;4992393;28;20201;-75
2022/10/20 00:23:49;;;;;;;16.93;11.47;;;;;;;;;;4974107;28;20031;-75
2022/10/20 00:26:18;;;;;;;23.97;11.07;;;;;;;;;;4991562;28;20080;-76
2022/10/20 00:28:44;;;;;;;22.90;10.90;;;;;;;;;;4973696;28;20324;-75
2022/10/20 00:31:11;;;;;;;21.13;10.90;;;;;;;;;;4991768;28;20022;-75
2022/10/20 00:33:36;;;;;;;21.03;10.83;;;;;;;;;;4973921;28;20031;-74
2022/10/20 00:36:04;;;;;;;21.93;11.17;;;;;;;;;;4974266;28;20425;-76
2022/10/20 00:38:30;;;;;;;20.30;11.83;;;;;;;;;;4974778;28;20058;-75
2022/10/20 00:40:55;;;;;;;20.23;12.27;;;;;;;;;;4974686;28;20066;-75
2022/10/20 00:43:21;;;;;;;21.67;11.57;;;;;;;;;;4974252;28;20462;-75
2022/10/20 00:45:56;;;;;;;20.37;11.40;;;;;;;;;;4957829;28;20034;-74
2022/10/20 00:48:27;;;;;;;25.83;13.00;;;;;;;;;;4973774;28;20094;-75
2022/10/20 00:50:54;;;;;;;21.33;11.40;;;;;;;;;;4973840;28;20513;-75
2022/10/20 00:53:23;;;;;;;22.80;12.43;;;;;;;;;;4991141;28;20026;-75
2022/10/20 00:55:51;;;;;;;24.20;11.70;;;;;;;;;;4990995;28;20479;-77
2022/10/20 00:58:17;;;;;;;23.03;11.97;;;;;;;;;;4973520;28;20037;-77
2022/10/20 01:00:45;;;;;;;19.30;11.50;;;;;;;;;;4973519;28;20022;-76
2022/10/20 01:03:16;;;;;;;21.67;12.67;;;;;;;;;;4991906;28;20050;-76
2022/10/20 01:05:42;;;;;;;23.35;12.60;;;;;;;;;;4992087;28;20098;-75
2022/10/20 01:08:07;;;;;;;22.17;11.83;;;;;;;;;;4991809;28;20137;-76
2022/10/20 01:10:49;;;;;;;22.00;12.83;;;;;;;;;;4991177;28;20100;-75
2022/10/20 01:13:36;;;;;;;23.88;12.18;;;;;;;;;;4973278;28;20055;-76
2022/10/20 01:16:34;;;;;;;23.43;11.87;;;;;;;;;;4973372;28;20057;-75
2022/10/20 01:19:19;;;;;;;21.73;12.53;;;;;;;;;;4907738;28;20037;-75
2022/10/20 01:21:50;;;;;;;22.40;12.17;;;;;;;;;;4974292;28;20074;-76
2022/10/20 01:24:40;;;;;;;22.23;12.48;;;;;;;;;;4991482;28;20057;-76
2022/10/20 01:27:27;;;;;;;25.37;12.30;;;;;;;;;;4954908;28;20134;-76
2022/10/20 01:29:58;;;;;;;29.07;14.00;;;;;;;;;;4954189;28;20474;-76
2022/10/20 01:32:48;;;;;;;27.52;14.10;;;;;;;;;;4953947;28;20031;-76
2022/10/20 01:35:33;;;;;;;22.20;12.07;;;;;;;;;;4954028;28;20116;-77
2022/10/20 01:38:01;;;;;;;24.13;13.07;;;;;;;;;;4954079;28;20033;-76
2022/10/20 01:40:45;;;;;;;23.20;12.60;;;;;;;;;;4953760;28;20072;-75
2022/10/20 01:43:13;;;;;;;25.27;13.80;;;;;;;;;;4953888;28;20041;-76
2022/10/20 01:45:43;;;;;;;22.00;12.23;;;;;;;;;;4970977;28;20105;-76
2022/10/20 01:48:11;;;;;;;40.63;18.27;;;;;;;;;;4991512;28;20419;-76
2022/10/20 01:50:38;;;;;;;27.60;13.67;;;;;;;;;;4992372;28;20870;-76
2022/10/20 01:53:04;;;;;;;24.83;13.57;;;;;;;;;;4992492;28;20026;-78
2022/10/20 01:55:31;;;;;;;28.07;13.43;;;;;;;;;;5010080;28;20474;-76
2022/10/20 01:58:15;;;;;;;27.07;12.80;;;;;;;;;;4992433;28;20492;-76
2022/10/20 02:00:42;;;;;;;25.33;14.53;;;;;;;;;;4992328;28;20033;-76
2022/10/20 02:03:10;;;;;;;28.80;13.70;;;;;;;;;;4992425;28;20033;-75
2022/10/20 02:05:45;;;;;;;27.97;13.47;;;;;;;;;;4992244;28;20086;-76
2022/10/20 02:08:19;;;;;;;26.43;13.77;;;;;;;;;;4992025;28;20486;-76
2022/10/20 02:10:51;;;;;;;24.20;13.47;;;;;;;;;;5009596;28;20029;-76
2022/10/20 02:13:18;;;;;;;;;;;;;;;;;;5010188;28;20056;-76
2022/10/20 02:15:49;;;;;;;25.07;12.27;;;;;;;;;;4992010;28;19929;-76
2022/10/20 02:18:20;;;;;;;28.77;13.63;;;;;;;;;;4991841;28;20471;-76
2022/10/20 02:20:49;;;;;;;30.30;13.70;;;;;;;;;;5009151;28;20447;-76
2022/10/20 02:23:15;;;;;;;26.17;13.07;;;;;;;;;;4991687;28;20061;-75
2022/10/20 02:25:41;;;;;;;26.83;13.60;;;;;;;;;;4977032;28;20042;-75
2022/10/20 02:28:13;;;;;;;32.53;14.73;;;;;;;;;;4968952;28;20061;-76
2022/10/20 02:30:40;;;;;;;26.80;14.00;;;;;;;;;;4953230;28;20464;-75
2022/10/20 02:33:06;;;;;;;26.50;14.47;;;;;;;;;;4970934;28;20039;-76
2022/10/20 02:35:32;;;;;;;24.27;13.17;;;;;;;;;;4970617;28;20031;-78
2022/10/20 02:37:59;;;;;;;27.70;13.97;;;;;;;;;;4970407;28;20078;-76
2022/10/20 02:40:25;;;;;;;25.40;14.33;;;;;;;;;;4970593;28;20062;-76
2022/10/20 02:42:50;;;;;;;25.80;13.77;;;;;;;;;;4970752;28;20058;-75
2022/10/20 02:45:16;;;;;;;25.37;13.20;;;;;;;;;;4969007;28;20626;-77
2022/10/20 02:47:41;;;;;;;24.17;13.57;;;;;;;;;;4970291;28;20035;-76
2022/10/20 02:50:08;;;;;;;30.33;15.17;;;;;;;;;;4968908;28;20054;-76
2022/10/20 02:52:33;;;;;;;29.17;14.30;;;;;;;;;;4970325;28;20061;-77
2022/10/20 02:54:59;;;;;;;28.87;14.47;;;;;;;;;;4968649;28;20428;-76
2022/10/20 02:57:25;;;;;;;25.60;13.53;;;;;;;;;;4970310;28;20433;-76
2022/10/20 02:59:51;;;;;;;29.40;14.60;;;;;;;;;;4969869;28;20035;-76
2022/10/20 03:02:16;;;;;;;28.97;14.20;;;;;;;;;;4968408;28;20169;-77
2022/10/20 03:04:42;;;;;;;34.10;14.23;;;;;;;;;;4968393;28;20502;-76
2022/10/20 03:07:07;;;;;;;38.97;15.97;;;;;;;;;;4968562;28;20035;-76
2022/10/20 03:09:33;;;;;;;26.97;13.13;;;;;;;;;;4969435;28;20030;-76
2022/10/20 03:11:58;;;;;;;27.40;14.63;;;;;;;;;;4969425;28;20446;-77
2022/10/20 03:14:24;;;;;;;31.03;14.47;;;;;;;;;;4970885;28;20031;-76
2022/10/20 03:16:49;;;;;;;28.90;15.20;;;;;;;;;;4968159;28;20043;-76
2022/10/20 03:19:15;;;;;;;28.03;13.20;;;;;;;;;;4969875;28;20106;-77
2022/10/20 03:21:40;;;;;;;24.97;13.17;;;;;;;;;;4971446;28;20035;-75
2022/10/20 03:24:08;;;;;;;26.00;12.60;;;;;;;;;;4972307;28;20130;-76
2022/10/20 03:26:33;;;;;;;23.87;13.77;;;;;;;;;;4954188;28;20035;-76
2022/10/20 03:28:59;;;;;;;30.53;13.63;;;;;;;;;;4953842;28;20046;-77
2022/10/20 03:31:24;;;;;;;31.27;14.17;;;;;;;;;;4954231;28;20527;-76
2022/10/20 03:33:50;;;;;;;26.83;13.40;;;;;;;;;;4954054;29;20035;-76
2022/10/20 03:36:15;;;;;;;30.90;13.33;;;;;;;;;;4954184;28;20042;-76
2022/10/20 03:38:42;;;;;;;26.27;13.23;;;;;;;;;;4953873;28;20031;-76
2022/10/20 03:41:07;;;;;;;24.73;13.30;;;;;;;;;;4952550;29;20380;-76
2022/10/20 03:43:33;;;;;;;21.10;11.10;;;;;;;;;;4953327;29;20062;-76
2022/10/20 03:46:04;;;;;;;22.80;11.70;;;;;;;;;;4951866;29;20031;-77
2022/10/20 03:48:31;;;;;;;25.23;11.90;;;;;;;;;;4952430;28;20091;-76
2022/10/20 03:50:59;;;;;;;25.80;12.67;;;;;;;;;;4952309;29;20050;-76
2022/10/20 03:53:24;;;;;;;29.07;14.43;;;;;;;;;;4936461;29;20043;-77
2022/10/20 03:55:50;;;;;;;23.23;12.50;;;;;;;;;;4952310;29;20027;-76
2022/10/20 03:58:15;;;;;;;23.83;12.93;;;;;;;;;;4953925;28;20035;-77
2022/10/20 04:00:41;;;;;;;22.57;11.90;;;;;;;;;;4953443;28;20039;-77
2022/10/20 04:03:06;;;;;;;22.87;11.00;;;;;;;;;;4952125;29;20445;-76
2022/10/20 04:05:31;;;;;;;23.13;11.07;;;;;;;;;;4955475;28;20038;-76
2022/10/20 04:07:57;;;;;;;25.03;12.90;;;;;;;;;;4953285;28;20039;-76
2022/10/20 04:10:22;;;;;;;21.23;12.10;;;;;;;;;;4953232;28;20556;-75
2022/10/20 04:12:48;;;;;;;23.83;12.20;;;;;;;;;;4953416;28;20109;-75
2022/10/20 04:15:13;;;;;;;23.17;12.00;;;;;;;;;;4952761;28;20035;-76
2022/10/20 04:17:39;;;;;;;23.17;12.07;;;;;;;;;;4952657;29;20048;-76
2022/10/20 04:20:06;;;;;;;23.77;12.87;;;;;;;;;;4954451;28;20039;-76
2022/10/20 04:22:31;;;;;;;25.63;11.97;;;;;;;;;;4953546;28;20039;-76
2022/10/20 04:24:57;;;;;;;21.00;12.03;;;;;;;;;;4957798;28;20051;-78
2022/10/20 04:27:22;;;;;;;21.63;12.53;;;;;;;;;;4953659;28;20444;-75
2022/10/20 04:29:48;;;;;;;25.33;12.37;;;;;;;;;;4951991;29;20038;-75
2022/10/20 04:32:13;;;;;;;23.40;12.27;;;;;;;;;;4951868;28;20039;-76
2022/10/20 04:34:39;;;;;;;21.03;11.33;;;;;;;;;;4953316;28;20094;-76
2022/10/20 04:37:04;;;;;;;22.43;12.17;;;;;;;;;;4951455;28;20035;-75
2022/10/20 04:39:30;;;;;;;23.43;11.97;;;;;;;;;;4952050;29;20039;-76
2022/10/20 04:41:56;;;;;;;20.63;10.33;;;;;;;;;;4951830;28;20119;-76
2022/10/20 04:44:23;;;;;;;23.13;11.87;;;;;;;;;;4952108;29;20038;-76
2022/10/20 04:46:48;;;;;;;22.90;11.83;;;;;;;;;;4952978;28;20138;-76
2022/10/20 04:49:15;;;;;;;20.90;11.33;;;;;;;;;;4953137;28;20034;-76
2022/10/20 04:51:40;;;;;;;21.10;11.87;;;;;;;;;;4953175;28;20034;-77
2022/10/20 04:54:06;;;;;;;29.53;11.40;;;;;;;;;;4953227;28;20073;-77
2022/10/20 04:56:31;;;;;;;21.93;11.93;;;;;;;;;;4952248;28;20030;-77
2022/10/20 04:58:58;;;;;;;25.13;12.27;;;;;;;;;;4951874;29;20478;-76
2022/10/20 05:01:27;;;;;;;24.17;11.87;;;;;;;;;;4951756;29;20483;-76
2022/10/20 05:03:53;;;;;;;23.83;12.43;;;;;;;;;;4952473;28;20488;-76
2022/10/20 05:06:22;;;;;;;20.47;11.43;;;;;;;;;;4952540;29;20107;-76
2022/10/20 05:08:50;;;;;;;23.80;12.83;;;;;;;;;;4951063;29;20043;-76
2022/10/20 05:11:17;;;;;;;36.37;22.40;;;;;;;;;;4951014;29;20376;-77
2022/10/20 05:13:43;;;;;;;22.13;12.37;;;;;;;;;;4950803;28;20093;-76
2022/10/20 05:16:10;;;;;;;22.07;11.87;;;;;;;;;;4947299;28;20054;-75
2022/10/20 05:18:39;;;;;;;26.03;11.90;;;;;;;;;;4947021;28;20033;-75
2022/10/20 05:21:08;;;;;;;25.40;12.20;;;;;;;;;;4944006;28;20400;-76
2022/10/20 05:23:34;;;;;;;25.30;13.43;;;;;;;;;;4945735;28;20038;-78
2022/10/20 05:26:04;;;;;;;29.00;15.73;;;;;;;;;;4988216;28;20042;-77
2022/10/20 05:28:29;;;;;;;20.53;12.20;;;;;;;;;;4962190;28;20136;-72
2022/10/20 05:30:55;;;;;;;24.50;12.27;;;;;;;;;;4957753;28;20104;-75
2022/10/20 05:33:22;;;;;;;25.60;13.33;;;;;;;;;;4957442;28;20041;-76
2022/10/20 05:35:47;;;;;;;24.77;12.60;;;;;;;;;;4994564;28;20379;-75
2022/10/20 05:38:13;;;;;;;21.93;11.43;;;;;;;;;;4990658;28;20046;-74
2022/10/20 05:40:38;;;;;;;26.37;13.60;;;;;;;;;;4988789;28;20359;-74
2022/10/20 05:43:05;;;;;;;28.73;13.67;;;;;;;;;;4992930;28;20494;-76
2022/10/20 05:45:31;;;;;;;28.67;14.63;;;;;;;;;;4987737;28;20439;-73
2022/10/20 05:47:57;;;;;;;31.43;13.37;;;;;;;;;;4988760;28;20038;-73
2022/10/20 05:50:22;;;;;;;27.30;12.43;;;;;;;;;;4971550;28;20040;-76
2022/10/20 05:52:48;;;;;;;28.20;12.17;;;;;;;;;;4989399;28;20471;-77
2022/10/20 05:55:13;;;;;;;31.57;13.43;;;;;;;;;;4971217;28;20034;-77
2022/10/20 05:57:39;;;;;;;27.50;13.97;;;;;;;;;;4967233;28;20033;-77
2022/10/20 06:00:05;;;;;;;34.93;15.10;;;;;;;;;;4952281;28;20140;-76
2022/10/20 06:02:32;;;;;;;32.77;16.67;;;;;;;;;;4981997;28;20035;-80
2022/10/20 06:04:58;;;;;;;30.43;13.90;;;;;;;;;;4979032;28;20137;-72
2022/10/20 06:07:23;;;;;;;55.50;15.83;;;;;;;;;;4968325;28;20026;-73
2022/10/20 06:09:49;;;;;;;34.23;17.30;;;;;;;;;;4982243;28;20148;-74
2022/10/20 06:12:14;;;;;;;35.13;15.10;;;;;;;;;;4971700;28;20030;-73
2022/10/20 06:14:40;;;;;;;30.90;13.07;;;;;;;;;;4971590;28;20173;-74
2022/10/20 06:17:05;;;;;;;30.97;14.17;;;;;;;;;;4964035;28;20045;-74
2022/10/20 06:19:31;;;;;;;28.53;13.33;;;;;;;;;;4987051;28;20052;-77
2022/10/20 06:21:56;;;;;;;22.20;12.00;;;;;;;;;;4985301;28;20042;-77
2022/10/20 06:24:23;;;;;;;34.73;15.90;;;;;;;;;;4958030;28;20486;-78
2022/10/20 06:26:50;;;;;;;28.27;13.87;;;;;;;;;;4956769;28;20035;-74
2022/10/20 06:29:18;;;;;;;26.43;13.87;;;;;;;;;;4970603;28;20031;-73
2022/10/20 06:31:54;;;;;;;28.23;13.40;;;;;;;;;;4971812;28;20105;-76
2022/10/20 06:34:25;;;;;;;32.03;14.63;;;;;;;;;;4964093;28;20196;-78
2022/10/20 06:36:51;;;;;;;25.63;14.03;;;;;;;;;;4970223;28;20033;-76
2022/10/20 06:39:20;;;;;;;29.23;14.97;;;;;;;;;;4971419;28;20415;-76
2022/10/20 06:41:49;;;;;;;28.80;13.03;;;;;;;;;;4971353;28;20033;-75
2022/10/20 06:44:16;;;;;;;27.30;13.83;;;;;;;;;;4965306;28;20497;-75
2022/10/20 06:46:51;;;;;;;24.73;14.23;;;;;;;;;;4967790;28;20106;-75
2022/10/20 06:49:28;;;;;;;26.50;13.13;;;;;;;;;;4968426;28;20734;-74
2022/10/20 06:51:54;;;;;;;23.20;13.67;;;;;;;;;;4967066;28;20030;-79
2022/10/20 06:54:20;;;;;;;30.13;13.70;;;;;;;;;;4966794;28;21154;-76
2022/10/20 06:56:45;;;;;;;28.73;14.63;;;;;;;;;;4968709;28;20034;-76
2022/10/20 06:59:11;;;;;;;33.67;14.07;;;;;;;;;;4967776;28;20030;-74
2022/10/20 07:01:38;;;;;;;31.30;16.40;;;;;;;;;;4967703;28;20030;-74
2022/10/20 07:04:06;;;;;;;28.00;13.83;;;;;;;;;;4948737;28;20047;-77
2022/10/20 07:06:35;;;;;;;31.50;14.53;;;;;;;;;;4960596;28;20125;-77
2022/10/20 07:09:08;;;;;;;26.07;14.60;;;;;;;;;;4974451;28;20049;-78
2022/10/20 07:11:34;;;;;;;30.07;14.77;;;;;;;;;;4967041;28;20121;-78
2022/10/20 07:14:01;;;;;;;29.30;14.70;;;;;;;;;;4972044;28;20057;-78
2022/10/20 07:16:30;;;;;;;28.73;15.53;;;;;;;;;;4973618;28;20536;-74
2022/10/20 07:19:15;;;;;;;29.43;14.00;;;;;;;;;;4974676;28;20034;-76
2022/10/20 07:21:41;;;;;;;31.73;14.70;;;;;;;;;;4969037;28;20128;-77
2022/10/20 07:24:08;;;;;;;41.30;14.30;;;;;;;;;;4979329;28;20128;-77
2022/10/20 07:26:36;;;;;;;35.10;15.90;;;;;;;;;;4973290;28;20034;-76
2022/10/20 07:29:03;;;;;;;30.67;14.40;;;;;;;;;;4973759;28;20037;-77
2022/10/20 07:31:42;;;;;;;30.60;14.50;;;;;;;;;;4964583;28;20023;-78
2022/10/20 07:34:09;;;;;;;26.40;14.73;;;;;;;;;;4974441;28;20037;-77
2022/10/20 07:36:41;;;;;;;28.10;14.43;;;;;;;;;;4970526;28;20046;-81
2022/10/20 07:39:07;;;;;;;35.70;17.57;;;;;;;;;;4971233;28;20074;-80
2022/10/20 07:41:37;;;;;;;33.57;15.40;;;;;;;;;;4970870;28;20042;-78
2022/10/20 07:44:03;;;;;;;32.33;14.77;;;;;;;;;;4957232;28;20118;-76
2022/10/20 07:46:29;;;;;;;27.13;14.50;;;;;;;;;;4974023;28;20041;-78
2022/10/20 07:48:55;;;;;;;30.77;15.33;;;;;;;;;;4972631;28;20046;-81
2022/10/20 07:51:20;;;;;;;36.27;14.90;;;;;;;;;;4951351;28;20058;-80
2022/10/20 07:53:47;;;;;;;26.43;14.43;;;;;;;;;;4971391;28;20038;-77
2022/10/20 07:56:14;;;;;;;28.97;15.97;;;;;;;;;;4972105;28;20070;-77
2022/10/20 07:58:40;;;;;;;29.47;14.93;;;;;;;;;;4967193;28;20587;-78
2022/10/20 08:01:05;;;;;;;32.07;15.47;;;;;;;;;;4965312;28;20065;-77
2022/10/20 08:03:31;;;;;;;29.70;15.60;;;;;;;;;;4967732;28;20070;-77
2022/10/20 08:05:57;;;;;;;31.73;15.63;;;;;;;;;;4966019;28;20034;-77
2022/10/20 08:08:22;;;;;;;28.63;15.60;;;;;;;;;;4970288;28;20042;-76
2022/10/20 08:10:48;;;;;;;29.53;15.77;;;;;;;;;;4969471;28;20624;-76
2022/10/20 08:13:13;;;;;;;32.07;15.53;;;;;;;;;;4969478;28;20046;-72
2022/10/20 08:15:40;;;;;;;31.60;16.10;;;;;;;;;;4964121;28;20034;-75
2022/10/20 08:18:08;;;;;;;27.97;15.40;;;;;;;;;;4960806;28;20041;-78
2022/10/20 08:20:34;;;;;;;26.60;14.67;;;;;;;;;;4965167;28;20133;-74
2022/10/20 08:23:01;;;;;;;28.47;15.63;;;;;;;;;;4958556;28;21816;-77
2022/10/20 08:25:26;;;;;;;37.03;18.30;;;;;;;;;;4975516;28;20759;-76
2022/10/20 08:27:53;;;;;;;31.23;15.47;;;;;;;;;;4984227;28;20088;-74
2022/10/20 08:30:19;;;;;;;33.33;15.37;;;;;;;;;;4988731;28;20165;-74
2022/10/20 08:32:45;;;;;;;29.23;15.40;;;;;;;;;;4968321;28;20694;-76
2022/10/20 08:35:10;;;;;;;29.20;17.17;;;;;;;;;;4968690;28;20034;-77
2022/10/20 08:37:36;;;;;;;32.60;14.93;;;;;;;;;;4982130;28;20041;-74
2022/10/20 08:40:05;;;;;;;28.40;15.55;;;;;;;;;;4985464;28;20542;-76
2022/10/20 08:42:39;;;;;;;27.70;15.57;;;;;;;;;;4986536;28;20073;-75
2022/10/20 08:45:07;;;;;;;28.58;15.07;;;;;;;;;;4977111;28;20045;-78
2022/10/20 08:47:36;;;;;;;25.73;14.85;;;;;;;;;;4967931;28;20450;-75
2022/10/20 08:50:05;;;;;;;28.05;14.43;;;;;;;;;;4986331;28;20097;-76
2022/10/20 08:52:34;;;;;;;31.35;16.02;;;;;;;;;;4974363;28;20045;-76
2022/10/20 08:55:04;;;;;;;29.52;15.38;;;;;;;;;;4992477;28;20030;-76
2022/10/20 08:57:31;;;;;;;33.42;15.23;;;;;;;;;;4991874;28;20037;-76
2022/10/20 09:00:19;;;;;;;26.27;15.32;;;;;;;;;;4976423;28;20034;-77
2022/10/20 09:02:47;;;;;;;24.35;14.38;;;;;;;;;;4971257;28;20040;-75
2022/10/20 09:05:14;;;;;;;21.75;12.32;;;;;;;;;;4969841;28;20030;-75
2022/10/20 09:07:40;;;;;;;20.90;11.20;;;;;;;;;;4973760;28;20054;-76
2022/10/20 09:10:57;;;;;;;19.20;11.18;;;;;;;;;;4967738;28;20523;-76
2022/10/20 09:13:26;;;;;;;17.42;9.23;;;;;;;;;;4942411;28;20041;-73
2022/10/20 09:15:58;;;;;;;15.60;9.25;;;;;;;;;;4971131;28;20048;-74
2022/10/20 09:18:23;;;;;;;13.73;8.35;;;;;;;;;;4944361;28;20050;-71
2022/10/20 09:21:09;;;;;;;15.48;9.07;;;;;;;;;;4960960;28;20038;-78
2022/10/20 09:23:51;;;;;;;19.35;8.32;;;;;;;;;;4954819;28;20038;-78
2022/10/20 09:26:31;;;;;;;15.98;8.02;;;;;;;;;;4964320;28;20042;-76
2022/10/20 09:29:12;;;;;;;15.85;6.78;;;;;;;;;;4958781;28;20042;-81
2022/10/20 09:31:55;;;;;;;16.27;6.82;;;;;;;;;;4954620;28;20555;-72
2022/10/20 09:34:31;;;;;;;11.90;6.60;;;;;;;;;;4949142;28;20046;-77
2022/10/20 09:37:05;;;;;;;12.50;7.70;;;;;;;;;;4984996;28;20034;-73
2022/10/20 09:39:46;;;;;;;9.40;6.65;;;;;;;;;;4963368;28;20037;-75
2022/10/20 09:42:20;;;;;;;11.68;6.15;;;;;;;;;;4984850;28;20037;-76
2022/10/20 09:45:06;;;;;;;7.82;5.20;;;;;;;;;;4968670;28;20033;-76
2022/10/20 09:47:33;;;;;;;8.68;5.32;;;;;;;;;;4965093;28;20045;-77
2022/10/20 09:50:07;;;;;;;8.73;5.20;;;;;;;;;;4969280;28;20065;-77
2022/10/20 09:52:46;;;;;;;8.18;5.55;;;;;;;;;;4971085;28;20439;-78
2022/10/20 09:55:35;;;;;;;7.72;4.63;;;;;;;;;;4967618;28;20427;-79
2022/10/20 09:58:02;;;;;;;8.63;5.15;;;;;;;;;;4968774;28;20026;-75
2022/10/20 10:00:33;;;;;;;5.93;4.10;;;;;;;;;;4962004;28;20062;-77
2022/10/20 10:03:22;;;;;;;10.02;6.03;;;;;;;;;;4965684;28;20042;-77
2022/10/20 10:05:49;;;;;;;8.02;4.68;;;;;;;;;;4986298;28;20033;-79
2022/10/20 10:08:16;;;;;;;7.90;4.28;;;;;;;;;;4989876;28;20029;-80
2022/10/20 10:10:55;;;;;;;9.82;5.03;;;;;;;;;;4987094;28;20026;-78
2022/10/20 10:13:26;;;;;;;9.93;4.85;;;;;;;;;;4971899;28;20165;-75
2022/10/20 10:16:13;;;;;;;4.88;3.90;;;;;;;;;;4971082;28;20066;-77
2022/10/20 10:18:40;;;;;;;5.63;4.35;;;;;;;;;;4980356;28;20132;-76
2022/10/20 10:21:16;;;;;;;6.22;4.18;;;;;;;;;;4982529;28;20044;-77
2022/10/20 10:23:59;;;;;;;11.10;5.05;;;;;;;;;;4971020;28;20762;-78
2022/10/20 10:26:53;;;;;;;9.90;4.53;;;;;;;;;;4972720;28;21246;-76
2022/10/20 10:29:28;;;;;;;7.47;5.03;;;;;;;;;;4967262;28;20126;-76
2022/10/20 10:32:03;;;;;;;13.52;6.47;;;;;;;;;;4994037;28;20038;-77
2022/10/20 10:34:44;;;;;;;10.05;5.47;;;;;;;;;;4973585;28;20045;-77
2022/10/20 10:37:14;;;;;;;10.52;6.72;;;;;;;;;;4972120;28;20132;-76
2022/10/20 10:39:41;;;;;;;8.73;5.28;;;;;;;;;;4985689;28;20143;-78
2022/10/20 10:42:27;;;;;;;8.95;4.78;;;;;;;;;;4988173;28;20049;-78
2022/10/20 10:45:05;;;;;;;5.88;4.10;;;;;;;;;;4969704;28;20123;-75
2022/10/20 10:48:03;;;;;;;6.28;4.70;;;;;;;;;;4989720;28;20042;-77
2022/10/20 10:50:43;;;;;;;6.03;4.15;;;;;;;;;;4970113;28;20081;-76
2022/10/20 10:53:19;;;;;;;7.97;5.50;;;;;;;;;;4985034;28;20425;-73
2022/10/20 10:56:06;;;;;;;11.02;6.47;;;;;;;;;;4965357;28;20502;-76
2022/10/20 10:58:57;;;;;;;9.70;5.22;;;;;;;;;;4964738;28;20088;-80
2022/10/20 11:01:56;;;;;;;10.00;5.47;;;;;;;;;;4958377;28;20140;-78
2022/10/20 11:04:56;;;;;;;8.07;5.32;;;;;;;;;;4960935;28;20050;-75
2022/10/20 11:07:41;;;;;;;12.32;5.28;;;;;;;;;;4988082;28;20060;-76
2022/10/20 11:10:32;;;;;;;8.88;6.00;;;;;;;;;;4986561;28;20038;-76
2022/10/20 11:13:27;;;;;;;11.77;5.57;;;;;;;;;;4960643;28;20077;-76
2022/10/20 11:16:18;;;;;;;12.05;7.05;;;;;;;;;;4977804;28;20049;-73
2022/10/20 11:19:11;;;;;;;18.40;7.05;;;;;;;;;;4956483;28;20133;-76
2022/10/20 11:21:41;;;;;;;9.85;6.68;;;;;;;;;;4965552;28;20081;-77
2022/10/20 11:24:28;;;;;;;9.27;6.20;;;;;;;;;;4962703;28;20081;-75
2022/10/20 11:27:24;;;;;;;12.32;6.20;;;;;;;;;;4977955;28;20659;-77
2022/10/20 11:30:04;;;;;;;9.40;6.00;;;;;;;;;;4945465;28;20599;-75
2022/10/20 11:32:38;;;;;;;9.57;5.65;;;;;;;;;;4977081;28;20038;-75
2022/10/20 11:35:22;;;;;;;10.43;5.95;;;;;;;;;;4974194;28;20517;-80
2022/10/20 11:38:14;;;;;;;11.90;6.05;;;;;;;;;;4969262;28;20487;-76
2022/10/20 11:40:45;;;;;;;;;;;;;;;;;;4981529;28;20097;-76
2022/10/20 11:43:24;;;;;;;13.93;8.23;;;;;;;;;;4964784;28;19983;-79
2022/10/20 11:46:33;;;;;;;13.57;7.70;;;;;;;;;;4987025;28;20038;-76
2022/10/20 11:48:59;;;;;;;14.50;7.57;;;;;;;;;;4971069;28;20219;-75
2022/10/20 11:51:30;;;;;;;22.00;8.82;;;;;;;;;;4989060;28;20046;-76
2022/10/20 11:54:08;;;;;;;15.52;8.40;;;;;;;;;;4967262;28;20034;-76
2022/10/20 11:56:40;;;;;;;13.18;7.40;;;;;;;;;;4970102;28;20034;-77
2022/10/20 11:59:19;;;;;;;15.63;7.97;;;;;;;;;;4966246;28;20025;-78
2022/10/20 12:02:22;;;;;;;12.13;7.82;;;;;;;;;;4968619;28;20026;-75
2022/10/20 12:05:09;;;;;;;10.75;6.07;;;;;;;;;;4966253;28;20169;-75
2022/10/20 12:08:17;;;;;;;12.00;5.90;;;;;;;;;;4970711;28;20038;-75
2022/10/20 12:10:55;;;;;;;9.43;5.15;;;;;;;;;;4968781;28;20095;-76
2022/10/20 12:13:49;;;;;;;12.65;5.68;;;;;;;;;;4964427;28;20133;-78
2022/10/20 12:16:52;;;;;;;6.85;4.70;;;;;;;;;;4974353;28;20559;-73
2022/10/20 12:19:27;;;;;;;10.07;5.05;;;;;;;;;;4938466;28;20716;-75
2022/10/20 12:22:06;;;;;;;9.95;5.45;;;;;;;;;;4983541;28;20576;-75
2022/10/20 12:25:02;;;;;;;6.22;4.85;;;;;;;;;;4971776;28;20065;-77
2022/10/20 12:27:31;;;;;;;7.55;4.30;;;;;;;;;;4988821;28;20573;-75
2022/10/20 12:30:11;;;;;;;9.85;4.93;;;;;;;;;;4989764;28;20026;-78
2022/10/20 12:32:59;;;;;;;6.53;4.32;;;;;;;;;;4982280;28;20129;-76
2022/10/20 12:35:30;;;;;;;7.63;4.57;;;;;;;;;;4967933;28;20124;-76
2022/10/20 12:38:02;;;;;;;8.87;5.63;;;;;;;;;;4982400;28;20037;-75
2022/10/20 12:40:40;;;;;;;6.22;4.90;;;;;;;;;;4976441;28;20026;-75
2022/10/20 12:43:25;;;;;;;7.63;5.65;;;;;;;;;;4957134;28;20121;-75
2022/10/20 12:45:55;;;;;;;15.05;6.10;;;;;;;;;;4964266;28;20136;-75
2022/10/20 12:48:23;;;;;;;9.20;5.50;;;;;;;;;;4961779;28;20038;-76
2022/10/20 12:50:51;;;;;;;16.30;8.52;;;;;;;;;;4962762;28;20053;-75
2022/10/20 12:53:26;;;;;;;10.63;5.00;;;;;;;;;;4960998;28;20081;-76
2022/10/20 12:56:13;;;;;;;19.75;6.25;;;;;;;;;;4980782;28;20038;-77
2022/10/20 12:59:34;;;;;;;9.75;4.43;;;;;;;;;;4980175;28;20443;-79
2022/10/20 13:02:09;;;;;;;10.80;6.40;;;;;;;;;;4904332;29;20055;-76
2022/10/20 13:04:55;;;;;;;5.88;3.72;;;;;;;;;;4976542;28;20123;-76
2022/10/20 13:07:49;;;;;;;7.60;4.28;;;;;;;;;;4961555;28;20030;-77
2022/10/20 13:10:34;;;;;;;8.98;4.20;;;;;;;;;;4961306;28;20034;-78
2022/10/20 13:13:00;;;;;;;7.30;4.93;;;;;;;;;;4962534;28;20034;-77
2022/10/20 13:15:42;;;;;;;7.32;5.15;;;;;;;;;;4961897;28;20470;-76
2022/10/20 13:18:11;;;;;;;4.47;3.30;;;;;;;;;;4956259;28;20023;-77
2022/10/20 13:20:52;;;;;;;7.20;4.47;;;;;;;;;;4966446;28;20401;-75
2022/10/20 13:23:41;;;;;;;7.45;4.60;;;;;;;;;;4965846;28;20082;-75
2022/10/20 13:26:28;;;;;;;7.95;3.10;;;;;;;;;;4960474;28;20045;-74
2022/10/20 13:28:57;;;;;;;5.50;4.22;;;;;;;;;;4960214;28;20143;-77
2022/10/20 13:31:40;;;;;;;5.55;2.75;;;;;;;;;;4957971;28;20049;-75
2022/10/20 13:34:38;;;;;;;11.90;3.55;;;;;;;;;;4948818;28;20146;-75
2022/10/20 13:37:30;;;;;;;4.68;2.85;;;;;;;;;;4956712;28;20039;-77
2022/10/20 13:40:01;;;;;;;;;;;;;;;;;;4925116;28;20054;-78
2022/10/20 13:42:38;;;;;;;5.13;3.50;;;;;;;;;;4954534;28;19929;-78
2022/10/20 13:45:27;;;;;;;7.75;3.03;;;;;;;;;;4953357;28;20038;-77
2022/10/20 13:48:30;;;;;;;4.60;3.22;;;;;;;;;;4952578;28;20334;-77
2022/10/20 13:51:04;;;;;;;9.43;4.85;;;;;;;;;;4956567;28;20173;-75
2022/10/20 13:53:40;;;;;;;12.68;4.00;;;;;;;;;;4952973;28;20105;-74
2022/10/20 13:56:19;;;;;;;7.82;3.20;;;;;;;;;;4944412;28;20045;-76
2022/10/20 13:59:21;;;;;;;8.60;4.20;;;;;;;;;;4957725;28;20885;-75
2022/10/20 14:01:53;;;;;;;7.10;3.08;;;;;;;;;;4962640;28;20477;-74
2022/10/20 14:04:37;;;;;;;8.88;4.45;;;;;;;;;;4944867;28;20034;-76
2022/10/20 14:07:16;;;;;;;9.60;3.70;;;;;;;;;;4959472;28;20039;-76
2022/10/20 14:09:42;;;;;;;11.75;3.85;;;;;;;;;;4964385;28;20038;-78
2022/10/20 14:12:16;;;;;;;11.90;3.55;;;;;;;;;;4946692;28;20475;-74
2022/10/20 14:14:43;;;;;;;6.40;3.17;;;;;;;;;;4965427;28;20693;-73
2022/10/20 14:17:21;;;;;;;12.10;3.80;;;;;;;;;;4939501;28;20035;-74
2022/10/20 14:19:48;;;;;;;15.05;4.10;;;;;;;;;;4961270;28;20039;-75
2022/10/20 14:22:14;;;;;;;9.48;2.92;;;;;;;;;;4954920;28;20046;-77
2022/10/20 14:24:43;;;;;;;6.55;2.83;;;;;;;;;;4957690;28;20076;-76
2022/10/20 14:27:19;;;;;;;8.05;3.45;;;;;;;;;;4965710;28;20111;-75
2022/10/20 14:29:45;;;;;;;7.15;2.85;;;;;;;;;;4959389;28;20038;-74
2022/10/20 14:32:31;;;;;;;10.38;4.57;;;;;;;;;;4965762;28;20507;-77
2022/10/20 14:35:38;;;;;;;8.88;3.65;;;;;;;;;;4983056;28;20034;-75
2022/10/20 14:38:14;;;;;;;7.78;4.45;;;;;;;;;;4973843;28;20106;-75
2022/10/20 14:40:43;;;;;;;9.13;4.28;;;;;;;;;;4965367;28;20394;-73
2022/10/20 14:43:17;;;;;;;6.40;3.95;;;;;;;;;;4984656;28;20026;-77
2022/10/20 14:45:59;;;;;;;10.30;4.55;;;;;;;;;;4982547;28;20026;-76
2022/10/20 14:48:45;;;;;;;10.52;5.97;;;;;;;;;;4977841;28;20030;-76
2022/10/20 14:51:33;;;;;;;14.18;5.75;;;;;;;;;;4958080;28;20130;-75
2022/10/20 14:54:34;;;;;;;9.55;4.22;;;;;;;;;;4964923;28;20069;-75
2022/10/20 14:57:14;;;;;;;9.85;5.07;;;;;;;;;;4888888;29;20400;-76
2022/10/20 15:00:05;;;;;;;9.02;4.85;;;;;;;;;;4902336;28;20109;-75